WetterOnline ( https://www.wetteronline.ch )

Wetter aktuell Regen

Aktuelles Wetter: Zwiesel (613m)

6-stündlich | Neueste Meldungen
Ortszeit Temperatur Wetter
Mo, 24.02. 19:00 2.3° C bedeckt
Mo, 24.02. 13:00 4.2° C bedeckt
Mo, 24.02. 7:00 1.6° C bedeckt
Mo, 24.02. 1:00 6.1° C Sprühregen
So, 23.02. 19:00 11.6° C bedeckt
So, 23.02. 13:00 5.4° C bedeckt
So, 23.02. 7:00 5.1° C leichter Regen
So, 23.02. 1:00 7.5° C Regen
Ortszeit Temperatur Wetter
Mo, 24.02. 22:00 2.8° C bedeckt
Mo, 24.02. 21:50 2.8° C bedeckt
Mo, 24.02. 21:40 2.8° C bedeckt
Mo, 24.02. 21:30 2.7° C bedeckt
Mo, 24.02. 21:20 2.7° C bedeckt
Mo, 24.02. 21:10 2.6° C bedeckt
Mo, 24.02. 21:00 2.6° C bedeckt
Mo, 24.02. 20:30 2.6° C bedeckt
Mo, 24.02. 20:00 2.6° C bedeckt
Mo, 24.02. 19:30 2.4° C bedeckt
Mo, 24.02. 19:00 2.3° C bedeckt
Ortszeit Relative Feuchte Sichtweite
Mo, 24.02. 19:00 97% 3.1 km
Mo, 24.02. 13:00 74% 40 km
Mo, 24.02. 7:00 74% >70 km
Mo, 24.02. 1:00 88% 12 km
So, 23.02. 19:00 66% 65 km
So, 23.02. 13:00 89% 40 km
So, 23.02. 7:00 93% 23 km
So, 23.02. 1:00 66% 55 km
Ortszeit Relative Feuchte Sichtweite
Mo, 24.02. 22:00 97% 8 km
Mo, 24.02. 21:50 97% -
Mo, 24.02. 21:40 97% -
Mo, 24.02. 21:30 96% 25 km
Mo, 24.02. 21:20 96% -
Mo, 24.02. 21:10 97% -
Mo, 24.02. 21:00 97% 9 km
Mo, 24.02. 20:30 97% 5.0 km
Mo, 24.02. 20:00 96% 10 km
Mo, 24.02. 19:30 97% 18 km
Mo, 24.02. 19:00 97% 3.1 km
Ortszeit Niederschlagsmenge Niederschlagsart
Mo, 24.02. 19:00 0.1 l/m2 in 12 Std. Regen
Mo, 24.02. 13:00 0.0 l/m2 in 6 Std. -
Mo, 24.02. 7:00 10 l/m2 in 12 Std. Regen
Mo, 24.02. 1:00 9 l/m2 in 6 Std. Regen
So, 23.02. 19:00 4 l/m2 in 12 Std. -
So, 23.02. 13:00 4 l/m2 in 6 Std. Schnee, Regen
So, 23.02. 7:00 11 l/m2 in 12 Std. Regen
So, 23.02. 1:00 0.1 l/m2 in 6 Std. Regen
Ortszeit Niederschlagsmenge Niederschlagsart
Mo, 24.02. 22:00 0.0 l/m2 in 1 Std. Regen
Mo, 24.02. 21:50 keine Meldung -
Mo, 24.02. 21:40 keine Meldung -
Mo, 24.02. 21:30 0.0 l/m2 in 1 Std. -
Mo, 24.02. 21:20 keine Meldung -
Mo, 24.02. 21:10 keine Meldung -
Mo, 24.02. 21:00 0.0 l/m2 in 1 Std. -
Mo, 24.02. 20:30 0.0 l/m2 in 1 Std. -
Mo, 24.02. 20:00 0.1 l/m2 in 1 Std. Regen
Mo, 24.02. 19:30 0.1 l/m2 in 1 Std. Schneeregen
Mo, 24.02. 19:00 0.1 l/m2 in 1 Std. Regen
Ortszeit Stärke Spitze Richtung
km/h Bft. km/h Grad Sektor
Mo, 24.02. 19:00 4 1 25 10° N
Mo, 24.02. 13:00 13 3 20 200° S
Mo, 24.02. 7:00 4 1 54 100° O
Mo, 24.02. 1:00 25 4 65 330° NW
So, 23.02. 19:00 29 5 50 250° W
So, 23.02. 13:00 13 3 44 120° SO
So, 23.02. 7:00 15 3 41 250° W
So, 23.02. 1:00 14 3 65 240° SW
Ortszeit Stärke Spitze Richtung
km/h Bft. km/h Grad Sektor
Mo, 24.02. 22:00 4 1 7 160° S
Mo, 24.02. 21:50 4 1 - 160° S
Mo, 24.02. 21:40 4 1 - 130° SO
Mo, 24.02. 21:30 0 0 4 - -
Mo, 24.02. 21:20 0 0 - 350° N
Mo, 24.02. 21:10 0 0 - 80° O
Mo, 24.02. 21:00 2 1 6 90° O
Mo, 24.02. 20:30 4 1 4 290° W
Mo, 24.02. 20:00 4 1 7 280° W
Mo, 24.02. 19:30 4 1 7 300° NW
Mo, 24.02. 19:00 4 1 7 10° N
Ortszeit Untergrenze Bedeckung Gattung
total tief tief mittel hoch
Mo, 24.02. 19:00 120 m 8/8 8/8 - - -
Mo, 24.02. 13:00 540 m 8/8 8/8 - - -
Mo, 24.02. 7:00 3000 m 8/8 8/8 - - -
Mo, 24.02. 1:00 630 m 7/8 7/8 - - -
So, 23.02. 19:00 960 m 8/8 8/8 - - -
So, 23.02. 13:00 690 m 8/8 8/8 - - -
So, 23.02. 7:00 60 m 8/8 8/8 - - -
So, 23.02. 1:00 990 m 7/8 7/8 - - -
Ortszeit Bedeckungsgrad in Achtel und Wolkenuntergrenze
Mo, 24.02. 22:00 8(210m)
Mo, 24.02. 21:50 8(210m)
Mo, 24.02. 21:40 8(180m)
Mo, 24.02. 21:30 8(150m)
Mo, 24.02. 21:20 8(150m)
Mo, 24.02. 21:10 8(120m)
Mo, 24.02. 21:00 8(150m)
Mo, 24.02. 20:30 8(150m)
Mo, 24.02. 20:00 8(150m)
Mo, 24.02. 19:30 8(210m)
Mo, 24.02. 19:00 8(120m) 8(210m)
Ortszeit Luftdruck NN (hPa) Tendenz (hPa in 3 Std.)
Mo, 24.02. 19:00 1016 - 3,3
Mo, 24.02. 13:00 1023 - 2,0
Mo, 24.02. 7:00 1026 + 2,5
Mo, 24.02. 1:00 1018 + 2,5
So, 23.02. 19:00 1013 - 1,4
So, 23.02. 13:00 1020 - 3,5
So, 23.02. 7:00 1025 - 1,0
So, 23.02. 1:00 1025 + 0,5
Ortszeit Luftdruck NN (hPa) Tendenz (hPa in 3 Std.)
Mo, 24.02. 22:00 1014 - 2,4
Mo, 24.02. 21:50 1014 keine Meldung
Mo, 24.02. 21:40 1014 keine Meldung
Mo, 24.02. 21:30 1014 - 2,2
Mo, 24.02. 21:20 1014 keine Meldung
Mo, 24.02. 21:10 1014 keine Meldung
Mo, 24.02. 21:00 1015 - 2,8
Mo, 24.02. 20:30 1015 - 2,7
Mo, 24.02. 20:00 1015 - 3,0
Mo, 24.02. 19:30 1016 - 3,3
Mo, 24.02. 19:00 1016 - 3,3
Ortszeit Schneehöhe (cm)
Mo, 24.02. 19:00 0
Mo, 24.02. 13:00 0
Mo, 24.02. 7:00 0
Mo, 24.02. 1:00 0
So, 23.02. 19:00 0
So, 23.02. 13:00 0
So, 23.02. 7:00 0
So, 23.02. 1:00 0
Ortszeit Schneehöhe (cm)
Mo, 24.02. 22:00 0
Mo, 24.02. 21:50 0
Mo, 24.02. 21:40 0
Mo, 24.02. 21:30 0
Mo, 24.02. 21:20 0
Mo, 24.02. 21:10 0
Mo, 24.02. 21:00 0
Mo, 24.02. 20:30 0
Mo, 24.02. 20:00 0
Mo, 24.02. 19:30 0
Mo, 24.02. 19:00 0
Link zu dieser Seite / Seite empfehlen

Das Wetter in ...